Time;durP1;ratioP1;P1;durP2;ratioP2;P2;SDS_P1;SDS_P2;PMS_P1;PMS_P2;Temp;Humidity;BMP_temperature;BMP_pressure;BME280_temperature;BME280_humidity;BME280_pressure;Samples;Min_cycle;Max_cycle;Signal;HPM_P1;HPM_P2
2021/09/25 03:15:45;;;;;;;;;;;;;;;6.17;84.36;99710.16;5071187;28;20015;-83
2021/09/25 03:18:10;;;;;;;;;;;;;;;6.09;84.36;99712.13;5074362;28;19955;-84
2021/09/25 03:20:36;;;;;;;;;;;;;;;6.06;84.28;99713.06;5074581;28;20488;-84
2021/09/25 03:23:01;;;;;;;;;;;;;;;6.04;84.70;99714.88;5073585;28;19971;-95
2021/09/25 03:25:26;;;;;;;;;;;;;;;5.98;84.90;99710.66;5073703;28;20019;-85
2021/09/25 03:27:54;;;;;;;;;;;;;;;6.00;85.12;99708.84;5071883;28;19917;-88
2021/09/25 03:30:20;;;;;;;;;;;;;;;6.07;84.67;99713.97;5054504;28;19926;-87
2021/09/25 03:32:45;;;;;;;;;;;;;;;5.92;85.03;99716.03;5045931;28;19920;-87
2021/09/25 03:35:11;;;;;;;;;;;;;;;5.89;85.55;99713.47;5055672;28;20329;-89
2021/09/25 03:37:36;;;;;;;;;;;;;;;5.92;85.47;99707.25;5072990;28;19916;-89
2021/09/25 03:40:02;;;;;;;;;;;;;;;5.98;85.19;99705.41;5055679;28;19920;-94
2021/09/25 03:42:27;;;;;;;;;;;;;;;5.85;85.72;99700.44;5072167;28;19917;-83
2021/09/25 03:44:52;;;;;;;;;;;;;;;5.84;85.16;99712.75;5056224;28;19969;-89
2021/09/25 03:47:17;;;;;;;;;;;;;;;5.89;85.56;99702.06;5056571;28;20252;-85
2021/09/25 03:49:43;;;;;;;;;;;;;;;5.90;85.23;99707.31;5058928;28;19917;-85
2021/09/25 03:52:09;;;;;;;;;;;;;;;5.86;85.33;99708.31;5057136;28;19924;-85
2021/09/25 03:54:34;;;;;;;;;;;;;;;5.68;85.71;99711.38;5057633;28;19924;-93
2021/09/25 03:56:59;;;;;;;;;;;;;;;5.83;85.40;99716.25;5053957;28;20260;-89
2021/09/25 03:59:24;;;;;;;;;;;;;;;5.91;85.18;99721.34;5056316;28;19927;-87
2021/09/25 04:01:50;;;;;;;;;;;;;;;5.79;85.49;99730.38;5056510;28;19962;-95
2021/09/25 04:04:15;;;;;;;;;;;;;;;5.62;85.81;99726.38;5055179;28;19920;-86
2021/09/25 04:06:40;;;;;;;;;;;;;;;5.86;85.16;99731.97;5071573;28;19947;-85
2021/09/25 04:09:07;;;;;;;;;;;;;;;5.69;85.13;99728.88;5054867;28;20379;-87
2021/09/25 04:11:32;;;;;;;;;;;;;;;5.76;84.98;99726.06;5069735;28;20290;-92
2021/09/25 04:13:57;;;;;;;;;;;;;;;5.87;87.93;99738.97;5070985;28;19920;-91
2021/09/25 04:16:24;;;;;;;;;;;;;;;5.90;91.81;99727.50;5054427;28;19920;-91
2021/09/25 04:18:52;;;;;;;;;;;;;;;5.92;91.69;99725.69;5054513;28;19927;-90
2021/09/25 04:21:17;;;;;;;;;;;;;;;5.95;92.33;99725.59;5054398;28;19967;-90
2021/09/25 04:23:43;;;;;;;;;;;;;;;5.90;91.09;99724.84;5054292;28;19964;-91
2021/09/25 04:26:13;;;;;;;;;;;;;;;5.76;91.08;99733.97;5054290;28;20002;-93
2021/09/25 04:28:38;;;;;;;;;;;;;;;5.86;91.81;99737.22;5053025;28;19912;-94
2021/09/25 04:31:04;;;;;;;;;;;;;;;5.97;91.70;99735.22;5054295;28;19916;-86
2021/09/25 04:33:29;;;;;;;;;;;;;;;5.92;91.98;99737.09;5055370;28;19917;-93
2021/09/25 04:35:54;;;;;;;;;;;;;;;5.90;92.18;99732.75;5075407;28;19927;-87
2021/09/25 04:38:20;;;;;;;;;;;;;;;5.87;91.05;99738.09;5073800;28;20313;-88
2021/09/25 04:40:45;;;;;;;;;;;;;;;5.71;91.09;99737.59;5054127;28;20045;-87
2021/09/25 04:43:10;;;;;;;;;;;;;;;5.74;91.33;99740.13;5052981;28;19962;-89
2021/09/25 04:45:36;;;;;;;;;;;;;;;5.78;91.13;99728.66;5057464;28;19920;-86
2021/09/25 04:48:01;;;;;;;;;;;;;;;5.85;90.32;99726.75;5059100;28;19917;-93
2021/09/25 04:50:29;;;;;;;;;;;;;;;5.77;90.36;99727.78;5058409;28;20287;-93
2021/09/25 04:53:03;;;;;;;;;;;;;;;5.83;90.13;99716.25;5077026;28;19938;-86
2021/09/25 04:55:29;;;;;;;;;;;;;;;5.70;89.71;99722.72;5076075;28;20902;-85
2021/09/25 04:57:54;;;;;;;;;;;;;;;5.70;90.41;99728.00;5058740;28;19939;-86
2021/09/25 05:00:19;;;;;;;;;;;;;;;5.64;89.49;99735.09;5060982;28;19920;-94
2021/09/25 05:02:47;;;;;;;;;;;;;;;5.74;89.91;99727.84;5060262;28;19966;-91
2021/09/25 05:05:12;;;;;;;;;;;;;;;5.73;89.32;99720.88;5078920;28;20309;-94
2021/09/25 07:55:49;;;;;;;;;;;;;;;5.24;88.37;99751.75;5034088;28;19983;-88
2021/09/25 07:58:14;;;;;;;;;;;;;;;5.18;87.95;99746.63;5052926;28;20339;-85
2021/09/25 08:00:41;;;;;;;;;;;;;;;5.12;88.43;99754.66;5037756;28;20291;-85
2021/09/25 08:03:06;;;;;;;;;;;;;;;5.15;88.23;99757.22;5051963;28;19983;-93
2021/09/25 08:05:32;;;;;;;;;;;;;;;5.13;88.20;99755.53;5054085;28;19917;-94
2021/09/25 08:07:57;;;;;;;;;;;;;;;5.08;88.46;99753.00;5053318;28;20314;-88
2021/09/25 08:10:22;;;;;;;;;;;;;;;5.11;87.92;99759.97;5052496;28;19917;-85
2021/09/25 08:12:49;;;;;;;;;;;;;;;5.16;88.36;99766.84;5034606;28;19920;-86
2021/09/25 08:15:15;;;;;;;;;;;;;;;5.12;88.14;99759.03;5037938;28;20283;-87
2021/09/25 08:17:41;;;;;;;;;;;;;;;4.90;88.65;99749.00;5055898;28;19917;-96
2021/09/25 08:20:10;;;;;;;;;;;;;;;5.12;88.42;99759.91;5054607;28;19917;-95
2021/09/25 08:22:35;;;;;;;;;;;;;;;4.94;88.61;99749.78;5037511;28;20354;-93
2021/09/25 08:25:00;;;;;;;;;;;;;;;5.07;88.17;99756.50;5035700;28;20063;-85
2021/09/25 08:27:26;;;;;;;;;;;;;;;4.96;88.53;99748.00;5055596;28;19917;-95
2021/09/25 08:29:51;;;;;;;;;;;;;;;5.02;88.77;99747.88;5034288;28;19990;-86
2021/09/25 08:32:16;;;;;;;;;;;;;;;4.97;88.81;99747.09;5036656;28;19943;-95
2021/09/25 08:34:42;;;;;;;;;;;;;;;4.98;88.92;99748.81;5055028;28;20294;-89
2021/09/25 08:37:07;;;;;;;;;;;;;;;4.97;88.65;99757.59;5055631;28;19920;-89
2021/09/25 08:39:33;;;;;;;;;;;;;;;4.99;88.27;99754.03;5051474;28;19917;-85
2021/09/25 08:41:59;;;;;;;;;;;;;;;4.98;88.87;99748.81;5038050;28;19929;-94
2021/09/25 08:44:25;;;;;;;;;;;;;;;5.01;89.18;99744.38;5036923;28;20015;-87
2021/09/25 08:46:52;;;;;;;;;;;;;;;5.07;88.60;99746.88;5053936;28;20321;-86
2021/09/25 08:49:18;;;;;;;;;;;;;;;5.12;88.80;99738.88;5039389;28;19916;-95
2021/09/25 08:51:43;;;;;;;;;;;;;;;5.07;89.26;99738.13;5055696;28;19927;-89
2021/09/25 08:54:08;;;;;;;;;;;;;;;5.12;88.90;99736.25;5036410;28;19928;-94
2021/09/25 08:56:33;;;;;;;;;;;;;;;4.99;88.95;99737.44;5036846;28;19950;-92
2021/09/25 08:58:59;;;;;;;;;;;;;;;5.01;89.06;99740.88;5055912;28;19960;-95
2021/09/25 09:01:26;;;;;;;;;;;;;;;5.13;89.45;99739.78;5055964;28;20065;-91
2021/09/25 09:03:52;;;;;;;;;;;;;;;5.02;89.67;99737.38;5053734;28;19917;-93
2021/09/25 09:06:23;;;;;;;;;;;;;;;5.13;90.18;99737.16;5035379;28;19924;-91
2021/09/25 09:08:50;;;;;;;;;;;;;;;4.97;89.80;99729.56;5036175;28;19939;-86
2021/09/25 09:11:17;;;;;;;;;;;;;;;5.04;90.12;99738.19;5034776;28;19927;-87
2021/09/25 09:13:43;;;;;;;;;;;;;;;5.01;90.42;99736.50;5035018;28;20439;-95
2021/09/25 09:16:10;;;;;;;;;;;;;;;5.08;90.36;99737.25;5036557;28;19925;-92
2021/09/25 09:18:38;;;;;;;;;;;;;;;5.07;90.45;99735.50;5036291;28;20303;-92
2021/09/25 09:21:05;;;;;;;;;;;;;;;5.07;90.91;99735.50;5051167;28;19923;-94
2021/09/25 09:23:32;;;;;;;;;;;;;;;5.13;90.89;99727.50;5053109;28;19996;-95
2021/09/25 09:25:58;;;;;;;;;;;;;;;5.11;90.76;99723.19;5036675;28;19921;-91
2021/09/25 09:28:28;;;;;;;;;;;;;;;5.05;91.11;99717.16;5054483;28;19963;-95
2021/09/25 09:30:55;;;;;;;;;;;;;;;4.95;91.25;99709.53;5055264;28;20000;-86
2021/09/25 09:33:50;;;;;;;;;;;;;;;5.10;91.55;99709.16;5059095;28;20478;-93
2021/09/25 09:36:18;;;;;;;;;;;;;;;5.15;91.49;99709.06;5027324;28;19939;-95
2021/09/25 09:38:51;;;;;;;;;;;;;;;5.04;91.14;99709.28;5055945;28;20581;-87
2021/09/25 09:41:20;;;;;;;;;;;;;;;5.13;91.09;99708.25;5040723;28;20010;-86
2021/09/25 09:43:46;;;;;;;;;;;;;;;5.16;91.42;99718.69;5055423;28;19917;-87
2021/09/25 09:46:12;;;;;;;;;;;;;;;5.28;91.30;99719.28;5058766;28;20004;-94
2021/09/25 09:48:37;;;;;;;;;;;;;;;5.14;91.89;99717.84;5040011;28;19924;-94
2021/09/25 09:51:03;;;;;;;;;;;;;;;5.15;92.11;99707.31;5057782;28;20005;-87
2021/09/25 09:53:41;;;;;;;;;;;;;;;5.32;92.40;99698.19;5038809;28;19917;-87
2021/09/25 09:56:16;;;;;;;;;;;;;;;5.30;91.68;99692.09;5055827;28;19931;-94
2021/09/25 09:58:41;;;;;;;;;;;;;;;5.27;92.13;99691.28;5041457;28;19916;-95
2021/09/25 10:01:07;;;;;;;;;;;;;;;5.30;91.74;99690.34;5058418;28;19975;-86
2021/09/25 10:03:33;;;;;;;;;;;;;;;5.19;91.95;99690.59;5058065;28;19976;-93
2021/09/25 10:05:59;;;;;;;;;;;;;;;5.22;92.99;99687.88;5040472;28;19939;-95
2021/09/25 10:08:24;;;;;;;;;;;;;;;5.33;92.23;99692.03;5055818;28;19920;-96
2021/09/25 10:10:50;;;;;;;;;;;;;;;5.36;92.12;99689.31;5039875;28;20006;-87
2021/09/25 10:13:17;;;;;;;;;;;;;;;5.28;91.88;99686.88;5058483;28;19917;-95
2021/09/25 10:15:43;;;;;;;;;;;;;;;5.33;92.25;99694.66;5057919;28;19963;-87
2021/09/25 10:18:09;;;;;;;;;;;;;;;5.37;92.16;99686.66;5057005;28;19925;-87
2021/09/25 10:20:35;;;;;;;;;;;;;;;5.40;92.17;99691.84;5038608;28;19924;-90
2021/09/25 10:23:00;;;;;;;;;;;;;;;5.37;91.91;99681.41;5040180;28;19920;-95
2021/09/25 10:25:26;;;;;;;;;;;;;;;5.39;92.26;99676.13;5055681;28;19939;-89
2021/09/25 10:27:51;;;;;;;;;;;;;;;5.41;92.72;99669.09;5057431;28;19917;-88
2021/09/25 10:30:32;;;;;;;;;;;;;;;5.46;92.90;99664.59;5038998;28;19931;-86
2021/09/25 10:32:57;;;;;;;;;;;;;;;5.34;92.76;99660.47;5038169;28;20035;-88
2021/09/25 10:35:25;;;;;;;;;;;;;;;5.35;92.83;99661.34;5038538;28;19995;-92
2021/09/25 10:37:51;;;;;;;;;;;;;;;5.36;92.99;99657.78;5055957;28;19916;-86
2021/09/25 10:40:18;;;;;;;;;;;;;;;5.34;92.56;99649.09;5039155;28;20275;-87
2021/09/25 10:42:46;;;;;;;;;;;;;;;5.44;93.14;99643.59;5038262;28;19917;-86
2021/09/25 10:45:31;;;;;;;;;;;;;;;5.45;93.46;99632.16;5056625;28;19970;-95
2021/09/25 10:48:04;;;;;;;;;;;;;;;5.49;93.12;99634.72;5054574;28;19956;-86
2021/09/25 10:50:30;;;;;;;;;;;;;;;5.46;93.40;99633.03;5055850;28;19971;-93
2021/09/25 10:53:06;;;;;;;;;;;;;;;5.57;93.92;99631.00;5039125;28;19916;-94
2021/09/25 10:55:31;;;;;;;;;;;;;;;5.49;92.88;99640.84;5055851;28;19928;-86
2021/09/25 10:58:13;;;;;;;;;;;;;;;5.53;92.92;99636.38;5054378;28;19917;-84
2021/09/25 11:00:48;;;;;;;;;;;;;;;5.56;93.17;99631.91;5056408;28;20364;-93
2021/09/25 11:03:32;;;;;;;;;;;;;;;5.57;93.46;99625.75;5053874;28;19921;-92
2021/09/25 11:06:01;;;;;;;;;;;;;;;5.56;92.96;99621.38;5055354;28;20452;-89
2021/09/25 11:08:33;;;;;;;;;;;;;;;5.54;93.48;99614.47;5055216;28;19920;-87
2021/09/25 11:11:09;;;;;;;;;;;;;;;5.60;93.90;99615.16;5054823;28;19924;-93
2021/09/25 11:13:52;;;;;;;;;;;;;;;5.63;93.56;99612.47;5053503;28;19970;-95
2021/09/25 11:16:38;;;;;;;;;;;;;;;5.62;93.02;99608.09;5056290;28;19970;-89
2021/09/25 11:19:07;;;;;;;;;;;;;;;5.62;93.39;99610.72;5036600;28;19999;-87
2021/09/25 11:21:33;;;;;;;;;;;;;;;5.67;93.69;99612.38;5050384;28;19924;-87
2021/09/25 11:23:58;;;;;;;;;;;;;;;5.74;93.39;99600.78;5036593;28;19921;-95
2021/09/25 11:26:24;;;;;;;;;;;;;;;5.62;93.93;99605.47;5055744;28;19986;-87
2021/09/25 11:28:49;;;;;;;;;;;;;;;5.64;93.35;99601.03;5055058;28;19916;-88
2021/09/25 11:31:14;;;;;;;;;;;;;;;5.63;92.98;99604.56;5054979;28;19927;-89
2021/09/25 11:33:40;;;;;;;;;;;;;;;5.59;93.55;99605.53;5054545;28;20059;-90
2021/09/25 11:36:09;;;;;;;;;;;;;;;5.64;92.93;99608.91;5039128;28;20482;-94
2021/09/25 11:38:42;;;;;;;;;;;;;;;5.64;93.33;99605.44;5052100;28;19927;-89
2021/09/25 11:41:12;;;;;;;;;;;;;;;5.76;93.32;99606.88;5055389;28;19990;-91
2021/09/25 11:43:37;;;;;;;;;;;;;;;5.68;93.33;99603.56;5054115;28;19923;-89
2021/09/25 11:46:03;;;;;;;;;;;;;;;5.70;93.34;99604.44;5055052;28;20007;-87
2021/09/25 11:48:29;;;;;;;;;;;;;;;5.77;94.36;99592.81;5037573;28;20290;-92
2021/09/25 11:50:55;;;;;;;;;;;;;;;5.78;93.68;99591.94;5054437;28;19924;-92
2021/09/25 11:53:22;;;;;;;;;;;;;;;5.78;93.26;99586.69;5036413;28;19927;-90
2021/09/25 11:55:48;;;;;;;;;;;;;;;5.83;93.41;99590.03;5037689;28;19956;-95
2021/09/25 11:58:15;;;;;;;;;;;;;;;5.78;94.03;99602.47;5037862;28;19943;-86
2021/09/25 12:00:40;;;;;;;;;;;;;;;5.67;93.62;99594.84;5037938;28;19995;-87
2021/09/25 12:03:06;;;;;;;;;;;;;;;5.69;93.85;99587.75;5038291;28;19964;-95
2021/09/25 12:05:32;;;;;;;;;;;;;;;5.77;93.60;99577.06;5057011;28;20406;-86
2021/09/25 12:07:58;;;;;;;;;;;;;;;5.78;93.79;99571.75;5056769;28;19917;-90
2021/09/25 12:10:28;;;;;;;;;;;;;;;5.74;93.65;99564.00;5036917;28;19970;-94
2021/09/25 12:12:55;;;;;;;;;;;;;;;5.81;93.02;99565.56;5037300;28;19921;-87
2021/09/25 12:15:21;;;;;;;;;;;;;;;5.75;93.63;99560.47;5035806;28;19925;-92
2021/09/25 12:18:02;;;;;;;;;;;;;;;5.73;94.02;99557.88;5039560;28;19955;-90
2021/09/25 12:20:32;;;;;;;;;;;;;;;5.77;94.15;99543.72;5057084;28;19917;-96
2021/09/25 12:22:58;;;;;;;;;;;;;;;5.81;93.79;99555.03;5039441;28;19947;-94
2021/09/25 12:25:24;;;;;;;;;;;;;;;5.84;93.16;99547.06;5039113;28;20328;-95
2021/09/25 12:27:49;;;;;;;;;;;;;;;5.89;93.68;99547.81;5039366;28;20031;-89
2021/09/25 12:30:17;;;;;;;;;;;;;;;5.71;93.67;99553.56;5058041;28;19920;-87
2021/09/25 12:32:42;;;;;;;;;;;;;;;5.73;93.96;99544.72;5058422;28;19923;-94
2021/09/25 12:35:20;;;;;;;;;;;;;;;5.68;93.84;99554.50;5037800;28;19921;-86
2021/09/25 12:37:46;;;;;;;;;;;;;;;5.77;93.92;99550.75;5037983;28;20400;-87
2021/09/25 12:40:12;;;;;;;;;;;;;;;5.82;94.00;99546.22;5037825;28;19921;-95
2021/09/25 12:42:39;;;;;;;;;;;;;;;5.78;93.74;99547.25;5039648;28;20493;-94
2021/09/25 12:45:05;;;;;;;;;;;;;;;5.82;93.71;99540.97;5058028;28;19925;-92
2021/09/25 12:47:31;;;;;;;;;;;;;;;5.80;93.82;99537.53;5058200;28;19924;-93
2021/09/25 12:50:16;;;;;;;;;;;;;;;5.82;93.81;99538.34;5057551;28;20012;-86
2021/09/25 12:52:41;;;;;;;;;;;;;;;5.88;93.67;99534.69;5053817;28;19927;-89
2021/09/25 12:55:10;;;;;;;;;;;;;;;5.81;93.38;99531.38;5055477;28;19921;-90
2021/09/25 12:57:35;;;;;;;;;;;;;;;5.88;93.94;99532.91;5040100;28;19924;-86
2021/09/25 13:00:05;;;;;;;;;;;;;;;5.88;93.44;99526.81;5055677;28;19920;-88
2021/09/25 13:02:30;;;;;;;;;;;;;;;5.82;94.02;99523.44;5040256;28;19924;-91
2021/09/25 13:04:59;;;;;;;;;;;;;;;5.69;94.33;99526.44;5057597;28;20015;-87
2021/09/25 13:07:25;;;;;;;;;;;;;;;5.72;94.28;99523.75;5060744;28;19920;-91
2021/09/25 13:09:51;;;;;;;;;;;;;;;5.73;93.82;99521.06;5043060;28;19917;-93
2021/09/25 13:12:19;;;;;;;;;;;;;;;5.85;93.71;99514.59;5061940;28;20236;-89
2021/09/25 13:14:56;;;;;;;;;;;;;;;5.70;94.00;99510.63;5045183;28;19920;-87
2021/09/25 13:17:21;;;;;;;;;;;;;;;5.81;93.79;99518.22;5041683;28;19967;-91
2021/09/25 13:19:46;;;;;;;;;;;;;;;5.91;93.65;99510.94;5043955;28;19921;-92
2021/09/25 13:22:12;;;;;;;;;;;;;;;5.85;93.27;99496.19;5059169;28;19917;-94
2021/09/25 13:24:40;;;;;;;;;;;;;;;5.78;93.10;99507.81;5062350;28;19921;-86
2021/09/25 13:27:06;;;;;;;;;;;;;;;5.72;93.01;99500.06;5063815;28;19924;-96
2021/09/25 13:29:31;;;;;;;;;;;;;;;5.78;92.43;99502.53;5038149;28;19924;-93
2021/09/25 13:31:57;;;;;;;;;;;;;;;5.77;92.81;99499.03;5039397;28;20453;-96
2021/09/25 13:34:22;;;;;;;;;;;;;;;5.77;92.44;99491.13;5055317;28;19914;-86
2021/09/25 13:36:49;;;;;;;;;;;;;;;5.73;92.16;99494.78;5037467;28;19917;-96
2021/09/25 13:39:14;;;;;;;;;;;;;;;5.85;91.95;99492.72;5055590;28;19963;-85
2021/09/25 13:41:39;;;;;;;;;;;;;;;5.80;92.48;99495.47;5038576;28;19948;-96
2021/09/25 13:44:05;;;;;;;;;;;;;;;5.85;92.39;99496.19;5057116;28;19924;-94
2021/09/25 13:46:30;;;;;;;;;;;;;;;5.79;91.90;99488.47;5039774;28;19921;-96
2021/09/25 13:48:55;;;;;;;;;;;;;;;5.88;92.77;99492.63;5038702;28;19923;-94
2021/09/25 13:51:20;;;;;;;;;;;;;;;5.77;92.84;99492.91;5039397;28;19917;-94
2021/09/25 13:53:46;;;;;;;;;;;;;;;5.80;92.56;99482.31;5039635;28;19917;-86
2021/09/25 13:56:11;;;;;;;;;;;;;;;5.72;92.75;99476.41;5056889;28;19928;-95
2021/09/25 13:58:37;;;;;;;;;;;;;;;5.82;92.75;99483.13;5040281;28;20409;-87
2021/09/25 14:01:04;;;;;;;;;;;;;;;5.71;92.92;99482.56;5057246;28;20434;-96
2021/09/25 14:03:29;;;;;;;;;;;;;;;5.70;92.91;99473.84;5039716;28;19916;-86
2021/09/25 14:05:55;;;;;;;;;;;;;;;5.66;93.24;99474.81;5038954;28;20386;-94
2021/09/25 14:08:20;;;;;;;;;;;;;;;5.74;92.20;99464.94;5036780;28;19928;-85
2021/09/25 14:10:45;;;;;;;;;;;;;;;5.79;91.70;99467.44;5056473;28;19959;-86
2021/09/25 14:13:11;;;;;;;;;;;;;;;5.67;92.31;99466.03;5051140;28;20382;-96
2021/09/25 14:15:37;;;;;;;;;;;;;;;5.71;92.36;99470.31;5056694;28;19917;-96
2021/09/25 14:18:02;;;;;;;;;;;;;;;5.63;92.80;99465.25;5054114;28;19917;-94
2021/09/25 14:20:28;;;;;;;;;;;;;;;5.71;93.68;99465.06;5056432;28;19923;-92
2021/09/25 14:22:54;;;;;;;;;;;;;;;5.72;92.76;99455.38;5038717;28;19916;-92
2021/09/25 14:25:19;;;;;;;;;;;;;;;5.77;92.94;99466.63;5054531;28;19928;-94
2021/09/25 14:27:45;;;;;;;;;;;;;;;5.78;93.05;99468.38;5052654;28;19928;-88
2021/09/25 14:30:11;;;;;;;;;;;;;;;5.78;93.05;99458.69;5056524;28;19917;-88
2021/09/25 14:32:36;;;;;;;;;;;;;;;5.78;92.50;99466.59;5037709;28;20344;-93
2021/09/25 14:35:01;;;;;;;;;;;;;;;5.72;92.86;99463.28;5056298;28;19921;-95
2021/09/25 14:37:27;;;;;;;;;;;;;;;5.84;92.71;99460.31;5037637;28;19916;-96
2021/09/25 14:39:52;;;;;;;;;;;;;;;5.73;93.17;99463.22;5054614;28;19917;-87
2021/09/25 14:42:17;;;;;;;;;;;;;;;5.79;93.44;99457.81;5036658;28;19924;-86
2021/09/25 14:44:43;;;;;;;;;;;;;;;5.85;93.44;99455.91;5054827;28;19964;-89
2021/09/25 14:47:09;;;;;;;;;;;;;;;5.83;93.28;99453.31;5037275;28;19948;-85
2021/09/25 14:49:35;;;;;;;;;;;;;;;5.83;93.33;99448.06;5055349;28;19999;-89
2021/09/25 14:52:01;;;;;;;;;;;;;;;5.91;93.04;99450.47;5055018;28;19983;-95
2021/09/25 14:54:26;;;;;;;;;;;;;;;5.76;93.26;99441.22;5052710;28;20372;-92
2021/09/25 14:56:53;;;;;;;;;;;;;;;5.82;93.25;99444.56;5055262;28;19921;-86
2021/09/25 14:59:19;;;;;;;;;;;;;;;5.88;93.30;99440.03;5054593;28;19925;-87
2021/09/25 15:01:44;;;;;;;;;;;;;;;5.76;93.48;99436.84;5055482;28;20477;-85
2021/09/25 15:04:10;;;;;;;;;;;;;;;5.81;93.07;99431.47;5055171;28;19921;-95
2021/09/25 15:06:35;;;;;;;;;;;;;;;5.78;93.18;99428.94;5037435;28;19924;-96
2021/09/25 15:09:00;;;;;;;;;;;;;;;5.89;92.84;99425.97;5054488;28;19955;-88
2021/09/25 15:11:26;;;;;;;;;;;;;;;5.98;93.27;99421.34;5054936;28;19924;-95
2021/09/25 15:13:51;;;;;;;;;;;;;;;5.87;93.31;99418.16;5055415;28;19916;-95
2021/09/25 15:16:16;;;;;;;;;;;;;;;5.88;92.88;99411.97;5035397;28;19928;-95
2021/09/25 15:18:42;;;;;;;;;;;;;;;5.93;93.11;99417.94;5035935;28;19921;-91
2021/09/25 15:21:07;;;;;;;;;;;;;;;5.91;93.05;99416.28;5037937;28;19960;-89
2021/09/25 15:23:34;;;;;;;;;;;;;;;5.89;93.08;99418.94;5036875;28;20059;-91
2021/09/25 15:26:09;;;;;;;;;;;;;;;;;;;;;
2021/09/25 15:32:14;;;;;;;;;;;;;;;;;;;;;
2021/09/25 15:34:40;;;;;;;;;;;;;;;5.94;92.91;99413.56;4970714;28;19940;-90
2021/09/25 15:37:06;;;;;;;;;;;;;;;5.96;92.90;99422.25;5047832;28;19917;-83
2021/09/25 15:39:35;;;;;;;;;;;;;;;5.92;92.94;99426.75;5051004;28;19998;-85
2021/09/25 15:42:01;;;;;;;;;;;;;;;5.87;92.64;99423.41;5033844;28;20292;-84
2021/09/25 15:44:26;;;;;;;;;;;;;;;5.91;92.83;99417.13;5051137;28;19921;-84
2021/09/25 15:46:53;;;;;;;;;;;;;;;5.90;93.18;99423.28;5051576;28;20326;-83
2021/09/25 15:49:19;;;;;;;;;;;;;;;5.86;92.96;99421.66;5050167;28;20358;-83
2021/09/25 15:51:44;;;;;;;;;;;;;;;5.88;92.58;99411.97;5052017;28;19964;-88
2021/09/25 15:54:10;;;;;;;;;;;;;;;5.92;92.52;99417.97;5035152;28;20372;-87
2021/09/25 15:56:35;;;;;;;;;;;;;;;5.88;92.90;99422.47;5036418;28;20015;-87
2021/09/25 15:59:01;;;;;;;;;;;;;;;5.85;93.30;99421.72;5054693;28;19917;-96
2021/09/25 16:01:26;;;;;;;;;;;;;;;5.90;93.12;99419.81;5054985;28;20422;-91
2021/09/25 16:03:51;;;;;;;;;;;;;;;5.88;92.94;99414.59;5051709;28;20403;-86
2021/09/25 16:06:17;;;;;;;;;;;;;;;5.88;92.80;99409.31;5036052;28;19921;-94
2021/09/25 16:08:42;;;;;;;;;;;;;;;5.88;93.08;99404.06;5034289;28;19928;-85
2021/09/25 16:11:07;;;;;;;;;;;;;;;5.81;93.02;99410.44;5034933;28;19928;-87
2021/09/25 16:13:33;;;;;;;;;;;;;;;5.90;93.50;99418.03;5053292;28;19999;-93
2021/09/25 16:15:58;;;;;;;;;;;;;;;5.79;92.99;99413.09;5053026;28;20430;-89
2021/09/25 16:18:25;;;;;;;;;;;;;;;5.87;92.86;99418.16;5035886;28;19921;-88
2021/09/25 16:20:50;;;;;;;;;;;;;;;5.81;93.24;99423.56;5035800;28;19931;-89
2021/09/25 16:23:16;;;;;;;;;;;;;;;5.87;93.00;99428.66;5053586;28;20011;-86
2021/09/25 16:25:42;;;;;;;;;;;;;;;5.93;92.70;99427.59;5052155;28;20256;-85
2021/09/25 16:28:07;;;;;;;;;;;;;;;5.85;93.29;99425.19;5053198;28;19928;-87
2021/09/25 16:30:33;;;;;;;;;;;;;;;5.93;93.30;99417.94;5053063;28;19917;-85
2021/09/25 16:32:58;;;;;;;;;;;;;;;5.87;93.26;99427.78;5036263;28;20023;-86
2021/09/25 16:35:26;;;;;;;;;;;;;;;5.92;93.19;99426.75;5054678;28;19928;-90
2021/09/25 16:37:51;;;;;;;;;;;;;;;5.83;93.16;99430.50;5036425;28;19927;-85
2021/09/25 16:40:17;;;;;;;;;;;;;;;5.93;93.34;99428.47;5035726;28;20280;-85
2021/09/25 16:42:42;;;;;;;;;;;;;;;5.90;93.13;99428.53;5057993;28;19942;-87
2021/09/25 16:45:07;;;;;;;;;;;;;;;5.87;93.49;99426.03;5039595;28;19925;-87
2021/09/25 16:47:33;;;;;;;;;;;;;;;5.91;93.66;99435.53;5039214;28;19917;-85
2021/09/25 16:49:58;;;;;;;;;;;;;;;5.96;93.82;99428.41;5039089;28;19917;-85
2021/09/25 16:52:23;;;;;;;;;;;;;;;5.87;93.76;99428.66;5038002;28;20422;-85
2021/09/25 16:54:49;;;;;;;;;;;;;;;5.89;93.82;99429.47;5058981;28;19925;-88
2021/09/25 16:57:14;;;;;;;;;;;;;;;5.96;93.50;99428.41;5055661;28;19921;-90
2021/09/25 16:59:40;;;;;;;;;;;;;;;5.90;93.68;99428.53;5056041;28;20445;-88
2021/09/25 17:02:06;;;;;;;;;;;;;;;5.91;93.79;99427.66;5058028;28;19967;-87
2021/09/25 17:04:31;;;;;;;;;;;;;;;5.97;94.01;99432.75;5039124;28;19921;-87
2021/09/25 17:06:57;;;;;;;;;;;;;;;5.96;93.49;99433.66;5041432;28;19963;-94
2021/09/25 17:09:29;;;;;;;;;;;;;;;5.93;93.82;99438.13;5056217;28;19958;-91
2021/09/25 17:11:54;;;;;;;;;;;;;;;5.85;93.92;99438.34;5059912;28;19928;-84
2021/09/25 17:14:19;;;;;;;;;;;;;;;6.01;94.62;99433.53;5060842;28;19913;-93
2021/09/25 17:16:44;;;;;;;;;;;;;;;5.92;93.79;99434.63;5041971;28;19947;-88
2021/09/25 17:19:10;;;;;;;;;;;;;;;5.94;94.25;99435.44;5056728;28;20509;-86
2021/09/25 17:21:35;;;;;;;;;;;;;;;5.98;93.87;99434.50;5061225;28;19928;-92
2021/09/25 17:24:00;;;;;;;;;;;;;;;5.98;93.98;99437.13;5043043;28;19917;-95
2021/09/25 17:26:27;;;;;;;;;;;;;;;5.87;94.43;99444.44;5062106;28;19921;-89
2021/09/25 17:28:52;;;;;;;;;;;;;;;5.96;94.59;99441.53;5063661;28;19924;-92
2021/09/25 17:31:18;;;;;;;;;;;;;;;6.06;94.14;99443.91;5064980;28;19917;-92
2021/09/25 17:33:43;;;;;;;;;;;;;;;5.90;94.14;99444.31;5045915;28;19924;-92
2021/09/25 17:36:09;;;;;;;;;;;;;;;5.90;94.46;99449.59;5061389;28;19925;-88
2021/09/25 17:38:37;;;;;;;;;;;;;;;5.86;94.11;99447.97;5058140;28;20295;-90
2021/09/25 17:41:03;;;;;;;;;;;;;;;5.95;94.14;99454.72;5048691;28;20554;-95
2021/09/25 17:43:28;;;;;;;;;;;;;;;5.94;94.29;99455.63;5072753;28;19939;-94
2021/09/25 17:45:53;;;;;;;;;;;;;;;5.91;94.66;99456.56;5069091;28;19917;-90
2021/09/25 17:48:19;;;;;;;;;;;;;;;5.95;94.43;99445.06;5070158;28;19992;-92
2021/09/25 17:50:45;;;;;;;;;;;;;;;5.99;94.34;99449.34;5049315;28;19938;-90
2021/09/25 17:53:10;;;;;;;;;;;;;;;6.00;94.16;99450.22;5059886;28;19932;-87
2021/09/25 17:55:37;;;;;;;;;;;;;;;5.92;94.38;99452.16;5063207;28;20388;-87
2021/09/25 17:58:03;;;;;;;;;;;;;;;5.96;94.61;99454.69;5063569;28;19916;-87
2021/09/25 18:00:28;;;;;;;;;;;;;;;5.91;94.48;99448.69;5061313;28;19965;-91
2021/09/25 18:02:53;;;;;;;;;;;;;;;6.01;94.89;99451.94;5041195;28;19974;-88
2021/09/25 18:05:19;;;;;;;;;;;;;;;5.96;94.47;99454.69;5060035;28;19917;-90
2021/09/25 18:07:44;;;;;;;;;;;;;;;5.90;94.99;99449.59;5060791;28;19924;-91
2021/09/25 18:10:10;;;;;;;;;;;;;;;5.91;95.18;99455.72;5046377;28;19959;-89
2021/09/25 18:12:35;;;;;;;;;;;;;;;5.95;95.04;99454.72;5048587;28;19975;-92
2021/09/25 18:15:01;;;;;;;;;;;;;;;5.98;95.05;99462.53;5057123;28;19917;-87
2021/09/25 18:17:26;;;;;;;;;;;;;;;5.98;94.58;99467.81;5044638;28;19928;-86
2021/09/25 18:19:52;;;;;;;;;;;;;;;5.99;94.53;99462.50;5042500;28;20292;-85
2021/09/25 18:22:20;;;;;;;;;;;;;;;6.06;94.71;99457.06;5043878;28;19917;-91
2021/09/25 18:24:46;;;;;;;;;;;;;;;5.91;95.26;99469.72;5065616;28;19931;-85
2021/09/25 18:27:11;;;;;;;;;;;;;;;5.97;95.61;99469.59;5067128;28;20007;-88
2021/09/25 18:29:37;;;;;;;;;;;;;;;5.96;95.52;99466.97;5047396;28;19952;-87
2021/09/25 18:32:04;;;;;;;;;;;;;;;5.94;95.41;99463.53;5065840;28;19917;-90
2021/09/25 18:34:29;;;;;;;;;;;;;;;5.90;95.77;99468.00;5065301;28;20326;-90
2021/09/25 18:36:55;;;;;;;;;;;;;;;5.95;95.66;99471.38;5046029;28;19928;-87
2021/09/25 18:39:22;;;;;;;;;;;;;;;5.95;95.56;99468.75;5067620;28;20021;-87
2021/09/25 18:41:48;;;;;;;;;;;;;;;5.96;95.23;99473.09;5047851;28;19921;-89
2021/09/25 18:44:13;;;;;;;;;;;;;;;6.00;95.53;99463.38;5043820;28;19924;-92
2021/09/25 18:46:39;;;;;;;;;;;;;;;5.94;95.35;99461.75;5045966;28;19917;-89
2021/09/25 18:49:04;;;;;;;;;;;;;;;5.92;95.52;99463.56;5043927;28;19929;-85
2021/09/25 18:53:57;;;;;;;;;;;;;;;5.98;95.44;99452.03;5093779;28;19947;-88
2021/09/25 18:56:22;;;;;;;;;;;;;;;5.94;95.70;99459.13;5080098;28;19920;-95
2021/09/25 18:58:48;;;;;;;;;;;;;;;5.92;95.61;99452.16;5069445;28;19927;-87
2021/09/25 19:01:13;;;;;;;;;;;;;;;5.93;96.02;99454.75;5074212;28;20425;-91
2021/09/25 19:03:38;;;;;;;;;;;;;;;5.98;95.72;99458.16;5068186;28;19927;-84
2021/09/25 19:06:04;;;;;;;;;;;;;;;5.99;95.98;99462.50;5070380;28;20374;-90